createdAt,value
2018-07-13T00:00:33.070Z,101084.00
2018-07-13T00:03:02.587Z,101101.00
2018-07-13T00:05:31.733Z,101092.00
2018-07-13T00:08:01.560Z,101091.00
2018-07-13T00:10:30.997Z,101104.00
2018-07-13T00:13:00.694Z,101103.00
2018-07-13T00:15:30.536Z,101102.00
2018-07-13T00:18:00.039Z,101103.00
2018-07-13T00:20:30.213Z,101105.00
2018-07-13T00:23:00.041Z,101104.00
2018-07-13T00:25:30.536Z,101108.00
2018-07-13T00:28:00.380Z,101104.00
2018-07-13T00:30:29.730Z,101112.00
2018-07-13T00:32:59.565Z,101102.00
2018-07-13T00:35:29.485Z,101110.00
2018-07-13T00:37:59.686Z,101108.00
2018-07-13T00:40:29.676Z,101112.00
2018-07-13T00:42:59.497Z,101106.00
2018-07-13T00:45:29.149Z,101105.00
2018-07-13T00:47:58.700Z,101107.00
2018-07-13T00:50:28.257Z,101101.00
2018-07-13T00:52:58.272Z,101104.00
2018-07-13T00:55:28.072Z,101101.00
2018-07-13T00:57:58.047Z,101094.00
2018-07-13T01:00:33.097Z,101093.00
2018-07-13T01:03:04.633Z,101089.00
2018-07-13T01:05:34.502Z,101079.00
2018-07-13T01:08:04.414Z,101083.00
2018-07-13T01:10:34.217Z,101074.00
2018-07-13T01:13:04.162Z,101082.00
2018-07-13T01:15:33.972Z,101081.00
2018-07-13T01:18:03.374Z,101083.00
2018-07-13T01:20:33.634Z,101086.00
2018-07-13T01:23:03.510Z,101089.00
2018-07-13T01:25:33.168Z,101078.00
2018-07-13T01:28:02.932Z,101090.00
2018-07-13T01:30:32.274Z,101094.00
2018-07-13T01:33:01.874Z,101089.00
2018-07-13T01:35:31.536Z,101099.00
2018-07-13T01:38:01.580Z,101094.00
2018-07-13T01:40:31.589Z,101096.00
2018-07-13T01:43:01.708Z,101102.00
2018-07-13T01:45:31.274Z,101092.00
2018-07-13T01:48:00.817Z,101095.00
2018-07-13T01:50:30.544Z,101091.00
2018-07-13T01:53:00.197Z,101089.00
2018-07-13T01:55:29.927Z,101086.00
2018-07-13T01:57:59.390Z,101090.00
2018-07-13T02:00:29.430Z,101083.00
2018-07-13T02:02:58.898Z,101092.00
2018-07-13T02:05:28.737Z,101095.00
2018-07-13T02:07:58.305Z,101090.00
2018-07-13T02:10:28.084Z,101100.00
2018-07-13T02:12:57.495Z,101094.00
2018-07-13T02:15:27.141Z,101092.00
2018-07-13T02:17:56.603Z,101092.00
2018-07-13T02:20:26.232Z,101096.00
2018-07-13T02:22:55.753Z,101093.00
2018-07-13T02:25:25.190Z,101102.00
2018-07-13T02:27:54.760Z,101093.00
2018-07-13T02:30:24.613Z,101108.00
2018-07-13T02:32:54.220Z,101100.00
2018-07-13T02:35:23.388Z,101096.00
2018-07-13T02:37:52.760Z,101107.00
2018-07-13T02:40:22.494Z,101105.00
2018-07-13T02:42:51.889Z,101101.00
2018-07-13T02:45:21.088Z,101105.00
2018-07-13T02:47:50.493Z,101105.00
2018-07-13T02:50:19.699Z,101115.00
2018-07-13T02:52:49.401Z,101106.00
2018-07-13T02:55:18.827Z,101114.00
2018-07-13T02:57:48.161Z,101113.00
2018-07-13T03:00:17.337Z,101114.00
2018-07-13T03:02:46.558Z,101113.00
2018-07-13T03:05:15.996Z,101117.00
2018-07-13T03:07:45.099Z,101126.00
2018-07-13T03:10:14.425Z,101124.00
2018-07-13T03:12:43.938Z,101127.00
2018-07-13T03:15:13.154Z,101127.00
2018-07-13T03:17:42.534Z,101125.00
2018-07-13T03:20:11.927Z,101131.00
2018-07-13T03:22:41.287Z,101126.00
2018-07-13T03:25:10.929Z,101133.00
2018-07-13T03:27:40.564Z,101136.00
2018-07-13T03:30:10.406Z,101135.00
2018-07-13T03:32:40.112Z,101144.00
2018-07-13T03:35:10.110Z,101137.00
2018-07-13T03:37:39.672Z,101151.00
2018-07-13T03:40:09.961Z,101150.00
2018-07-13T03:42:40.035Z,101150.00
2018-07-13T03:45:09.830Z,101155.00
2018-07-13T03:47:40.087Z,101151.00
2018-07-13T03:50:09.959Z,101156.00
2018-07-13T03:52:39.989Z,101161.00
2018-07-13T03:55:10.087Z,101166.00
2018-07-13T03:57:39.869Z,101161.00
2018-07-13T04:00:09.983Z,101161.00
2018-07-13T04:02:39.935Z,101164.00
2018-07-13T04:05:09.851Z,101160.00
2018-07-13T04:07:39.449Z,101162.00
2018-07-13T04:10:09.951Z,101155.00
2018-07-13T04:12:40.341Z,101157.00
2018-07-13T04:15:10.096Z,101160.00
2018-07-13T04:17:40.940Z,101162.00
2018-07-13T04:20:10.447Z,101158.00
2018-07-13T04:22:40.189Z,101160.00
2018-07-13T04:25:10.580Z,101165.00
2018-07-13T04:27:40.575Z,101163.00
2018-07-13T04:30:10.641Z,101176.00
2018-07-13T04:32:40.485Z,101180.00
2018-07-13T04:35:10.161Z,101170.00
2018-07-13T04:37:41.219Z,101175.00
2018-07-13T04:40:11.212Z,101169.00
2018-07-13T04:42:41.401Z,101174.00
2018-07-13T04:45:11.347Z,101183.00
2018-07-13T04:47:41.543Z,101175.00
2018-07-13T04:50:11.692Z,101179.00
2018-07-13T04:52:41.784Z,101174.00
2018-07-13T04:55:11.554Z,101167.00
2018-07-13T04:57:41.723Z,101184.00
2018-07-13T05:00:12.685Z,101184.00
2018-07-13T05:02:43.591Z,101189.00
2018-07-13T05:05:15.062Z,101198.00
2018-07-13T05:07:45.121Z,101189.00
2018-07-13T05:10:15.361Z,101207.00
2018-07-13T05:12:45.412Z,101193.00
2018-07-13T05:15:15.250Z,101196.00
2018-07-13T05:17:45.338Z,101191.00
2018-07-13T05:20:15.354Z,101204.00
2018-07-13T05:22:45.214Z,101192.00
2018-07-13T05:25:15.480Z,101191.00
2018-07-13T05:27:45.590Z,101198.00
2018-07-13T05:30:16.460Z,101189.00
2018-07-13T05:32:46.205Z,101193.00
2018-07-13T05:35:15.875Z,101200.00
2018-07-13T05:37:45.457Z,101191.00
2018-07-13T05:40:16.385Z,101197.00
2018-07-13T05:42:47.035Z,101199.00
2018-07-13T05:45:18.103Z,101201.00
2018-07-13T05:47:49.631Z,101203.00
2018-07-13T05:50:20.395Z,101197.00
2018-07-13T05:52:50.417Z,101203.00
2018-07-13T05:55:20.623Z,101203.00
2018-07-13T05:57:50.977Z,101197.00
2018-07-13T06:00:20.953Z,101202.00
2018-07-13T06:02:50.985Z,101201.00
2018-07-13T06:05:21.288Z,101203.00
2018-07-13T06:07:50.807Z,101205.00
2018-07-13T06:10:21.041Z,101204.00
2018-07-13T06:12:51.807Z,101211.00
2018-07-13T06:15:21.404Z,101216.00
2018-07-13T06:17:51.566Z,101220.00
2018-07-13T06:20:21.367Z,101218.00
2018-07-13T06:22:52.597Z,101221.00
2018-07-13T06:25:23.016Z,101228.00
2018-07-13T06:27:52.950Z,101226.00
2018-07-13T06:30:22.904Z,101229.00
2018-07-13T06:32:52.776Z,101216.00
2018-07-13T06:35:22.958Z,101223.00
2018-07-13T06:37:53.912Z,101226.00
2018-07-13T06:40:24.298Z,101224.00
2018-07-13T06:42:54.224Z,101221.00
2018-07-13T06:45:24.647Z,101224.00
2018-07-13T06:47:55.080Z,101228.00
2018-07-13T06:50:25.286Z,101225.00
2018-07-13T06:52:55.440Z,101226.00
2018-07-13T06:55:25.888Z,101224.00
2018-07-13T06:58:06.928Z,101238.00
2018-07-13T07:01:08.417Z,101234.00
2018-07-13T07:04:41.520Z,101238.00
2018-07-13T07:07:13.984Z,101231.00
2018-07-13T07:09:47.239Z,101231.00
2018-07-13T07:12:56.332Z,101247.00
2018-07-13T07:15:26.712Z,101249.00
2018-07-13T07:17:57.167Z,101246.00
2018-07-13T07:20:28.074Z,101253.00
2018-07-13T07:22:57.975Z,101258.00
2018-07-13T07:25:29.637Z,101244.00
2018-07-13T07:28:00.265Z,101248.00
2018-07-13T07:30:30.484Z,101252.00
2018-07-13T07:33:00.331Z,101250.00
2018-07-13T07:35:30.405Z,101241.00
2018-07-13T07:38:01.419Z,101247.00
2018-07-13T07:40:31.339Z,101244.00
2018-07-13T07:43:01.625Z,101249.00
2018-07-13T07:45:31.813Z,101250.00
2018-07-13T07:48:02.113Z,101249.00
2018-07-13T07:50:32.553Z,101254.00
2018-07-13T07:53:02.676Z,101255.00
2018-07-13T07:55:32.870Z,101263.00
2018-07-13T07:58:03.046Z,101249.00
2018-07-13T08:00:33.253Z,101259.00
2018-07-13T08:03:03.457Z,101261.00
2018-07-13T08:05:33.453Z,101271.00
2018-07-13T08:08:03.514Z,101257.00
2018-07-13T08:10:33.355Z,101255.00
2018-07-13T08:13:03.013Z,101260.00
2018-07-13T08:15:32.863Z,101257.00
2018-07-13T08:18:02.895Z,101269.00
2018-07-13T08:20:36.383Z,101263.00
2018-07-13T08:23:07.701Z,101268.00
2018-07-13T08:25:39.001Z,101258.00
2018-07-13T08:28:10.210Z,101259.00
2018-07-13T08:30:47.424Z,101261.00
2018-07-13T08:33:17.767Z,101262.00
2018-07-13T08:35:47.920Z,101260.00
2018-07-13T08:38:18.123Z,101269.00
2018-07-13T08:40:48.095Z,101262.00
2018-07-13T08:43:18.151Z,101266.00
2018-07-13T08:45:48.671Z,101263.00
2018-07-13T08:48:19.421Z,101270.00
2018-07-13T08:50:49.656Z,101272.00
2018-07-13T08:53:20.375Z,101272.00
2018-07-13T08:55:50.695Z,101271.00
2018-07-13T08:58:20.581Z,101268.00
2018-07-13T09:00:50.760Z,101265.00
2018-07-13T09:03:21.472Z,101268.00
2018-07-13T09:05:51.687Z,101272.00
2018-07-13T09:08:21.805Z,101269.00
2018-07-13T09:10:51.703Z,101266.00
2018-07-13T09:13:22.591Z,101271.00
2018-07-13T09:15:52.682Z,101273.00
2018-07-13T09:18:22.864Z,101281.00
2018-07-13T09:20:53.139Z,101277.00
2018-07-13T09:23:23.700Z,101277.00
2018-07-13T09:25:53.662Z,101291.00
2018-07-13T09:28:23.558Z,101285.00
2018-07-13T09:30:53.166Z,101280.00
2018-07-13T09:33:22.957Z,101284.00
2018-07-13T09:35:53.023Z,101279.00
2018-07-13T09:38:23.116Z,101282.00
2018-07-13T09:40:52.920Z,101278.00
2018-07-13T09:43:22.970Z,101272.00
2018-07-13T09:45:52.843Z,101288.00
2018-07-13T09:48:22.617Z,101288.00
2018-07-13T09:50:52.786Z,101291.00
2018-07-13T09:53:22.499Z,101286.00
2018-07-13T09:55:52.489Z,101294.00
2018-07-13T09:58:31.412Z,101296.00
2018-07-13T10:01:06.492Z,101294.00
2018-07-13T10:03:36.662Z,101291.00
2018-07-13T10:06:06.509Z,101296.00
2018-07-13T10:08:36.531Z,101301.00
2018-07-13T10:11:06.378Z,101299.00
2018-07-13T10:13:35.966Z,101297.00
2018-07-13T10:16:06.038Z,101299.00
2018-07-13T10:18:35.922Z,101308.00
2018-07-13T10:21:06.971Z,101305.00
2018-07-13T10:23:37.568Z,101294.00
2018-07-13T10:26:15.824Z,101292.00
2018-07-13T10:28:45.740Z,101298.00
2018-07-13T10:31:16.162Z,101305.00
2018-07-13T10:36:25.073Z,101291.00
2018-07-13T10:38:55.530Z,101306.00
2018-07-13T10:41:25.913Z,101297.00
2018-07-13T10:43:55.723Z,101299.00
2018-07-13T10:46:25.693Z,101302.00
2018-07-13T10:48:56.075Z,101288.00
2018-07-13T10:51:26.030Z,101304.00
2018-07-13T10:53:56.612Z,101296.00
2018-07-13T10:56:27.616Z,101306.00
2018-07-13T10:58:57.702Z,101302.00
2018-07-13T11:01:28.138Z,101301.00
2018-07-13T11:03:58.350Z,101307.00
2018-07-13T11:06:29.983Z,101300.00
2018-07-13T11:09:00.204Z,101289.00
2018-07-13T11:11:30.980Z,101295.00
2018-07-13T11:14:01.094Z,101288.00
2018-07-13T11:16:31.427Z,101292.00
2018-07-13T11:19:01.351Z,101291.00
2018-07-13T11:21:31.570Z,101288.00
2018-07-13T11:24:01.573Z,101293.00
2018-07-13T11:26:31.845Z,101283.00
2018-07-13T11:29:02.133Z,101283.00
2018-07-13T11:31:32.020Z,101292.00
2018-07-13T11:34:02.928Z,101290.00
2018-07-13T11:36:33.167Z,101290.00
2018-07-13T11:39:05.150Z,101296.00
2018-07-13T11:41:35.250Z,101290.00
2018-07-13T11:44:07.015Z,101292.00
2018-07-13T11:46:37.969Z,101289.00
2018-07-13T11:49:08.610Z,101283.00
2018-07-13T11:51:38.950Z,101285.00
2018-07-13T11:54:08.991Z,101297.00
2018-07-13T11:56:39.202Z,101290.00
2018-07-13T11:59:09.490Z,101284.00
2018-07-13T12:01:39.895Z,101290.00
2018-07-13T12:04:10.312Z,101292.00
2018-07-13T12:06:41.569Z,101288.00
2018-07-13T12:09:11.559Z,101286.00
2018-07-13T12:11:41.717Z,101283.00
2018-07-13T12:14:11.886Z,101281.00
2018-07-13T12:16:41.687Z,101286.00
2018-07-13T12:19:11.732Z,101270.00
2018-07-13T12:21:42.148Z,101271.00
2018-07-13T12:24:12.807Z,101272.00
2018-07-13T12:26:42.795Z,101262.00
2018-07-13T12:29:13.987Z,101264.00
2018-07-13T12:31:44.147Z,101270.00
2018-07-13T12:34:14.241Z,101259.00
2018-07-13T12:36:44.885Z,101262.00
2018-07-13T12:39:15.565Z,101255.00
2018-07-13T12:41:45.629Z,101265.00
2018-07-13T12:44:16.231Z,101253.00
2018-07-13T12:46:46.023Z,101260.00
2018-07-13T12:49:16.033Z,101254.00
2018-07-13T12:51:45.670Z,101254.00
2018-07-13T12:54:15.602Z,101254.00
2018-07-13T12:56:46.107Z,101268.00
2018-07-13T12:59:16.605Z,101263.00
2018-07-13T13:01:46.435Z,101255.00
2018-07-13T13:04:16.287Z,101251.00
2018-07-13T13:06:46.103Z,101263.00
2018-07-13T13:09:15.753Z,101262.00
2018-07-13T13:11:46.370Z,101242.00
2018-07-13T13:14:16.492Z,101248.00
2018-07-13T13:16:46.966Z,101246.00
2018-07-13T13:19:16.976Z,101247.00
2018-07-13T13:21:47.478Z,101238.00
2018-07-13T13:24:17.852Z,101239.00
2018-07-13T13:26:48.331Z,101237.00
2018-07-13T13:29:18.777Z,101231.00
2018-07-13T13:31:49.622Z,101230.00
2018-07-13T13:34:19.788Z,101236.00
2018-07-13T13:36:50.225Z,101229.00
2018-07-13T13:39:20.887Z,101230.00
2018-07-13T13:41:51.627Z,101230.00
2018-07-13T13:44:21.921Z,101219.00
2018-07-13T13:46:51.800Z,101216.00
2018-07-13T13:49:22.047Z,101209.00
2018-07-13T13:51:52.782Z,101210.00
2018-07-13T13:54:22.992Z,101215.00
2018-07-13T13:56:54.042Z,101208.00
2018-07-13T13:59:25.488Z,101215.00
2018-07-13T14:01:55.559Z,101213.00
2018-07-13T14:04:25.444Z,101207.00
2018-07-13T14:06:55.796Z,101215.00
2018-07-13T14:09:26.399Z,101215.00
2018-07-13T14:11:56.524Z,101204.00
2018-07-13T14:14:26.557Z,101212.00
2018-07-13T14:16:58.104Z,101205.00
2018-07-13T14:19:28.364Z,101206.00
2018-07-13T14:21:57.827Z,101204.00
2018-07-13T14:24:27.702Z,101202.00
2018-07-13T14:26:57.814Z,101199.00
2018-07-13T14:29:27.692Z,101206.00
2018-07-13T14:31:57.684Z,101206.00
2018-07-13T14:34:27.927Z,101198.00
2018-07-13T14:36:59.848Z,101202.00
2018-07-13T14:39:29.679Z,101186.00
2018-07-13T14:41:59.163Z,101193.00
2018-07-13T14:44:29.309Z,101187.00
2018-07-13T14:46:59.888Z,101185.00
2018-07-13T14:49:30.631Z,101179.00
2018-07-13T14:52:00.652Z,101175.00
2018-07-13T14:54:30.652Z,101183.00
2018-07-13T14:57:00.773Z,101180.00
2018-07-13T14:59:31.307Z,101181.00
2018-07-13T15:02:01.864Z,101184.00
2018-07-13T15:04:32.312Z,101175.00
2018-07-13T15:07:02.789Z,101166.00
2018-07-13T15:09:33.288Z,101174.00
2018-07-13T15:12:03.300Z,101173.00
2018-07-13T15:14:33.265Z,101172.00
2018-07-13T15:17:03.440Z,101176.00
2018-07-13T15:19:33.588Z,101164.00
2018-07-13T15:22:03.388Z,101163.00
2018-07-13T15:24:34.018Z,101160.00
2018-07-13T15:27:03.857Z,101155.00
2018-07-13T15:29:33.280Z,101151.00
2018-07-13T15:32:03.551Z,101159.00
2018-07-13T15:34:33.498Z,101171.00
2018-07-13T15:37:03.362Z,101174.00
2018-07-13T15:39:33.572Z,101165.00
2018-07-13T15:42:04.060Z,101168.00
2018-07-13T15:44:34.160Z,101155.00
2018-07-13T15:47:04.099Z,101158.00
2018-07-13T15:49:33.882Z,101151.00
2018-07-13T15:52:03.856Z,101153.00
2018-07-13T15:54:33.420Z,101149.00
2018-07-13T15:57:03.266Z,101152.00
2018-07-13T15:59:33.300Z,101148.00
2018-07-13T16:02:04.221Z,101149.00
2018-07-13T16:04:35.068Z,101159.00
2018-07-13T16:07:05.337Z,101149.00
2018-07-13T16:09:35.250Z,101144.00
2018-07-13T16:12:05.256Z,101154.00
2018-07-13T16:14:35.099Z,101142.00
2018-07-13T16:17:05.289Z,101151.00
2018-07-13T16:19:35.588Z,101141.00
2018-07-13T16:22:05.471Z,101145.00
2018-07-13T16:24:35.786Z,101144.00
2018-07-13T16:27:07.678Z,101137.00
2018-07-13T16:29:38.173Z,101139.00
2018-07-13T16:32:08.195Z,101147.00
2018-07-13T16:34:38.202Z,101137.00
2018-07-13T16:37:08.488Z,101137.00
2018-07-13T16:39:39.518Z,101146.00
2018-07-13T16:42:10.795Z,101138.00
2018-07-13T16:44:40.742Z,101131.00
2018-07-13T16:47:10.913Z,101140.00
2018-07-13T16:49:41.453Z,101142.00
2018-07-13T16:52:11.816Z,101141.00
2018-07-13T16:54:41.968Z,101135.00
2018-07-13T16:57:11.875Z,101144.00
2018-07-13T16:59:41.789Z,101136.00
2018-07-13T17:02:11.869Z,101135.00
2018-07-13T17:04:42.329Z,101135.00
2018-07-13T17:07:13.007Z,101129.00
2018-07-13T17:09:43.711Z,101138.00
2018-07-13T17:12:13.609Z,101141.00
2018-07-13T17:14:46.914Z,101135.00
2018-07-13T17:17:17.387Z,101136.00
2018-07-13T17:19:47.441Z,101141.00
2018-07-13T17:22:18.479Z,101133.00
2018-07-13T17:24:50.504Z,101139.00
2018-07-13T17:27:20.871Z,101139.00
2018-07-13T17:29:51.850Z,101140.00
2018-07-13T17:32:21.937Z,101138.00
2018-07-13T17:34:52.698Z,101150.00
2018-07-13T17:37:23.055Z,101138.00
2018-07-13T17:39:53.393Z,101146.00
2018-07-13T17:42:23.444Z,101151.00
2018-07-13T17:44:54.549Z,101150.00
2018-07-13T17:47:25.561Z,101142.00
2018-07-13T17:49:55.683Z,101145.00
2018-07-13T17:52:25.555Z,101146.00
2018-07-13T17:54:55.908Z,101155.00
2018-07-13T17:57:25.947Z,101151.00
2018-07-13T17:59:56.615Z,101149.00
2018-07-13T18:02:27.535Z,101152.00
2018-07-13T18:04:59.324Z,101158.00
2018-07-13T18:07:29.713Z,101152.00
2018-07-13T18:09:59.556Z,101148.00
2018-07-13T18:12:30.594Z,101150.00
2018-07-13T18:15:00.901Z,101143.00
2018-07-13T18:17:31.004Z,101149.00
2018-07-13T18:20:00.996Z,101157.00
2018-07-13T18:22:30.889Z,101155.00
2018-07-13T18:25:00.849Z,101160.00
2018-07-13T18:27:31.015Z,101155.00
2018-07-13T18:30:01.573Z,101167.00
2018-07-13T18:32:31.295Z,101162.00
2018-07-13T18:35:01.781Z,101171.00
2018-07-13T18:37:32.023Z,101173.00
2018-07-13T18:40:02.438Z,101169.00
2018-07-13T18:42:32.951Z,101177.00
2018-07-13T18:45:03.329Z,101178.00
2018-07-13T18:47:35.597Z,101172.00
2018-07-13T18:50:07.574Z,101175.00
2018-07-13T18:52:38.678Z,101186.00
2018-07-13T18:55:09.814Z,101192.00
2018-07-13T18:57:40.722Z,101188.00
2018-07-13T19:00:12.500Z,101187.00
2018-07-13T19:02:43.540Z,101191.00
2018-07-13T19:05:14.198Z,101201.00
2018-07-13T19:07:44.042Z,101200.00
2018-07-13T19:10:14.121Z,101210.00
2018-07-13T19:12:44.359Z,101205.00
2018-07-13T19:15:14.977Z,101214.00
2018-07-13T19:17:45.807Z,101203.00
2018-07-13T19:20:17.577Z,101212.00
2018-07-13T19:22:48.116Z,101209.00
2018-07-13T19:25:18.321Z,101214.00
2018-07-13T19:27:49.384Z,101219.00
2018-07-13T19:30:19.986Z,101210.00
2018-07-13T19:32:51.123Z,101219.00
2018-07-13T19:35:21.540Z,101219.00
2018-07-13T19:37:51.437Z,101223.00
2018-07-13T19:40:21.277Z,101225.00
2018-07-13T19:42:50.919Z,101235.00
2018-07-13T19:45:20.897Z,101224.00
2018-07-13T19:47:50.531Z,101230.00
2018-07-13T19:50:19.971Z,101238.00
2018-07-13T19:52:49.219Z,101237.00
2018-07-13T19:55:18.409Z,101239.00
2018-07-13T19:57:47.704Z,101243.00
2018-07-13T20:00:17.105Z,101250.00
2018-07-13T20:02:46.257Z,101244.00
2018-07-13T20:05:15.279Z,101249.00
2018-07-13T20:07:44.457Z,101256.00
2018-07-13T20:10:13.719Z,101255.00
2018-07-13T20:12:42.865Z,101262.00
2018-07-13T20:15:12.122Z,101251.00
2018-07-13T20:17:41.566Z,101267.00
2018-07-13T20:20:11.177Z,101265.00
2018-07-13T20:22:40.429Z,101266.00
2018-07-13T20:25:10.150Z,101268.00
2018-07-13T20:27:39.512Z,101272.00
2018-07-13T20:30:09.587Z,101269.00
2018-07-13T20:32:39.181Z,101275.00
2018-07-13T20:35:08.792Z,101275.00
2018-07-13T20:37:38.511Z,101273.00
2018-07-13T20:40:08.421Z,101283.00
2018-07-13T20:42:38.083Z,101279.00
2018-07-13T20:45:08.015Z,101272.00
2018-07-13T20:47:38.460Z,101276.00
2018-07-13T20:50:08.045Z,101279.00
2018-07-13T20:52:37.677Z,101284.00
2018-07-13T20:55:07.434Z,101279.00
2018-07-13T20:57:37.513Z,101285.00
2018-07-13T21:00:07.669Z,101291.00
2018-07-13T21:02:37.462Z,101299.00
2018-07-13T21:05:07.133Z,101306.00
2018-07-13T21:07:36.732Z,101294.00
2018-07-13T21:10:06.670Z,101300.00
2018-07-13T21:12:36.656Z,101294.00
2018-07-13T21:15:06.612Z,101295.00
2018-07-13T21:17:36.253Z,101295.00
2018-07-13T21:20:06.079Z,101307.00
2018-07-13T21:22:36.040Z,101301.00
2018-07-13T21:25:06.667Z,101305.00
2018-07-13T21:27:36.817Z,101306.00
2018-07-13T21:30:06.667Z,101295.00
2018-07-13T21:32:36.473Z,101306.00
2018-07-13T21:35:06.552Z,101303.00
2018-07-13T21:37:36.499Z,101304.00
2018-07-13T21:40:06.110Z,101300.00
2018-07-13T21:42:36.074Z,101302.00
2018-07-13T21:45:05.855Z,101306.00
2018-07-13T21:47:35.245Z,101304.00
2018-07-13T21:50:05.037Z,101298.00
2018-07-13T21:52:34.693Z,101302.00
2018-07-13T21:55:04.432Z,101299.00
2018-07-13T21:57:34.054Z,101297.00
2018-07-13T22:00:03.542Z,101294.00
2018-07-13T22:02:33.568Z,101305.00
2018-07-13T22:05:03.143Z,101306.00
2018-07-13T22:07:33.326Z,101299.00
2018-07-13T22:10:03.397Z,101292.00
2018-07-13T22:12:33.343Z,101300.00
2018-07-13T22:15:03.797Z,101310.00
2018-07-13T22:17:33.563Z,101314.00
2018-07-13T22:20:03.118Z,101306.00
2018-07-13T22:22:32.702Z,101314.00
2018-07-13T22:25:02.643Z,101318.00
2018-07-13T22:27:32.563Z,101315.00
2018-07-13T22:30:02.184Z,101306.00
2018-07-13T22:32:31.641Z,101316.00
2018-07-13T22:35:01.611Z,101309.00
2018-07-13T22:37:31.499Z,101311.00
2018-07-13T22:40:00.916Z,101306.00
2018-07-13T22:42:30.240Z,101310.00
2018-07-13T22:44:59.665Z,101318.00
2018-07-13T22:47:29.216Z,101322.00
2018-07-13T22:49:59.069Z,101327.00
2018-07-13T22:52:28.887Z,101321.00
2018-07-13T22:54:58.701Z,101325.00
2018-07-13T22:57:28.813Z,101322.00
2018-07-13T22:59:58.529Z,101331.00
2018-07-13T23:02:28.451Z,101323.00
2018-07-13T23:04:59.174Z,101336.00
2018-07-13T23:07:29.340Z,101334.00
2018-07-13T23:09:59.213Z,101337.00
2018-07-13T23:12:28.884Z,101335.00
2018-07-13T23:14:58.266Z,101333.00
2018-07-13T23:17:27.855Z,101333.00
2018-07-13T23:19:57.078Z,101336.00
2018-07-13T23:22:27.882Z,101339.00
2018-07-13T23:24:57.443Z,101332.00
2018-07-13T23:27:27.252Z,101334.00
2018-07-13T23:29:57.634Z,101345.00
2018-07-13T23:32:27.644Z,101331.00
2018-07-13T23:34:58.394Z,101339.00
2018-07-13T23:37:28.649Z,101338.00
2018-07-13T23:39:59.172Z,101339.00
2018-07-13T23:42:29.771Z,101342.00
2018-07-13T23:44:59.391Z,101336.00
2018-07-13T23:47:29.420Z,101344.00
2018-07-13T23:49:59.711Z,101336.00
2018-07-13T23:52:29.803Z,101330.00
2018-07-13T23:54:59.355Z,101330.00
2018-07-13T23:57:29.514Z,101334.00
2018-07-13T23:59:59.347Z,101334.00
